createdAt,value
2022-10-08T00:01:51.107Z,6.30
2022-10-08T00:06:52.930Z,6.35
2022-10-08T00:11:54.698Z,6.38
2022-10-08T00:16:56.437Z,6.53
2022-10-08T00:21:58.246Z,6.88
2022-10-08T00:27:00.333Z,6.53
2022-10-08T00:32:02.353Z,6.90
2022-10-08T00:37:04.148Z,6.88
2022-10-08T00:42:05.903Z,6.75
2022-10-08T00:47:16.232Z,7.38
2022-10-08T00:52:19.590Z,6.72
2022-10-08T00:57:22.406Z,7.60
2022-10-08T01:02:24.159Z,7.30
2022-10-08T01:07:33.008Z,7.80
2022-10-08T01:12:34.679Z,7.72
2022-10-08T01:18:00.524Z,7.88
2022-10-08T01:23:22.511Z,7.90
2022-10-08T01:28:24.218Z,7.47
2022-10-08T01:33:33.569Z,7.15
2022-10-08T01:38:41.121Z,7.30
2022-10-08T01:43:48.406Z,7.55
2022-10-08T01:48:53.740Z,7.00
2022-10-08T01:53:55.973Z,7.10
2022-10-08T01:59:08.027Z,6.93
2022-10-08T02:04:28.245Z,7.28
2022-10-08T02:09:32.750Z,7.95
2022-10-08T02:14:38.015Z,7.22
2022-10-08T02:19:52.935Z,7.63
2022-10-08T02:25:16.673Z,7.88
2022-10-08T02:30:18.614Z,8.05
2022-10-08T02:35:27.649Z,7.55
2022-10-08T02:40:31.130Z,7.50
2022-10-08T02:45:40.627Z,8.65
2022-10-08T02:50:45.781Z,7.47
2022-10-08T02:56:02.268Z,8.30
2022-10-08T03:01:17.370Z,7.50
2022-10-08T03:06:19.945Z,8.45
2022-10-08T03:11:21.854Z,7.40
2022-10-08T03:16:27.767Z,7.90
2022-10-08T03:21:30.724Z,8.63
2022-10-08T03:26:32.478Z,7.72
2022-10-08T03:31:34.373Z,7.95
2022-10-08T03:36:36.117Z,7.00
2022-10-08T03:41:38.074Z,8.65
2022-10-08T03:46:39.789Z,7.88
2022-10-08T03:51:41.513Z,7.97
2022-10-08T03:56:43.241Z,8.23
2022-10-08T04:01:44.986Z,7.97
2022-10-08T04:06:46.731Z,7.40
2022-10-08T04:11:48.491Z,7.53
2022-10-08T04:16:50.204Z,7.50
2022-10-08T04:21:51.930Z,7.15
2022-10-08T04:26:54.897Z,6.97
2022-10-08T04:31:56.758Z,7.63
2022-10-08T04:36:58.465Z,7.78
2022-10-08T04:42:00.316Z,7.90
2022-10-08T04:47:02.338Z,7.97
2022-10-08T04:52:04.195Z,7.32
2022-10-08T04:57:05.998Z,7.60
2022-10-08T05:02:07.743Z,6.78
2022-10-08T05:07:09.563Z,7.68
2022-10-08T05:12:11.252Z,7.70
2022-10-08T05:17:12.989Z,8.38
2022-10-08T05:22:14.728Z,8.27
2022-10-08T05:27:16.450Z,8.43
2022-10-08T05:32:18.157Z,7.88
2022-10-08T05:37:20.258Z,8.02
2022-10-08T05:42:21.982Z,7.82
2022-10-08T05:47:23.972Z,7.40
2022-10-08T05:52:27.091Z,7.95
2022-10-08T05:57:28.847Z,8.13
2022-10-08T06:02:30.560Z,8.65
2022-10-08T06:07:32.290Z,8.45
2022-10-08T06:12:34.028Z,7.65
2022-10-08T06:17:35.831Z,8.63
2022-10-08T06:22:37.585Z,8.40
2022-10-08T06:27:39.335Z,8.68
2022-10-08T06:32:41.087Z,8.18
2022-10-08T06:37:42.821Z,8.35
2022-10-08T06:42:44.799Z,8.32
2022-10-08T06:47:46.670Z,8.45
2022-10-08T06:52:49.258Z,8.77
2022-10-08T06:57:51.419Z,8.55
2022-10-08T07:02:53.414Z,8.60
2022-10-08T07:07:55.154Z,8.20
2022-10-08T07:12:57.953Z,7.93
2022-10-08T07:17:59.654Z,8.55
2022-10-08T07:23:01.412Z,8.13
2022-10-08T07:28:03.189Z,7.72
2022-10-08T07:33:06.334Z,7.85
2022-10-08T07:38:08.043Z,7.43
2022-10-08T07:43:09.851Z,7.25
2022-10-08T07:48:11.603Z,7.93
2022-10-08T07:53:13.503Z,6.65
2022-10-08T07:58:15.263Z,6.53
2022-10-08T08:03:17.027Z,6.03
2022-10-08T08:08:18.771Z,5.90
2022-10-08T08:13:20.445Z,5.03
2022-10-08T08:18:22.155Z,4.82
2022-10-08T08:23:23.841Z,4.38
2022-10-08T08:28:25.588Z,4.22
2022-10-08T08:33:27.311Z,4.10
2022-10-08T08:38:29.102Z,3.92
2022-10-08T08:43:30.880Z,3.03
2022-10-08T08:48:37.737Z,3.50
2022-10-08T08:53:39.654Z,3.65
2022-10-08T08:58:58.471Z,3.25
2022-10-08T09:04:09.621Z,3.70
2022-10-08T09:09:42.057Z,4.07
2022-10-08T09:14:52.959Z,3.55
2022-10-08T09:19:55.190Z,4.22
2022-10-08T09:25:03.542Z,4.07
2022-10-08T09:30:31.128Z,4.32
2022-10-08T09:35:34.426Z,3.92
2022-10-08T09:40:36.129Z,3.58
2022-10-08T09:45:43.492Z,3.97
2022-10-08T09:51:23.329Z,4.60
2022-10-08T09:56:28.189Z,4.87
2022-10-08T10:01:33.833Z,4.90
2022-10-08T10:06:39.046Z,4.63
2022-10-08T10:11:47.911Z,4.63
2022-10-08T10:16:56.260Z,4.43
2022-10-08T10:22:42.137Z,3.90
2022-10-08T10:28:13.505Z,4.43
2022-10-08T10:33:20.230Z,4.68
2022-10-08T10:38:30.600Z,3.75
2022-10-08T10:43:38.475Z,3.50
2022-10-08T10:48:40.323Z,4.13
2022-10-08T10:54:18.590Z,3.97
2022-10-08T10:59:38.427Z,4.13
2022-10-08T11:05:13.438Z,3.88
2022-10-08T11:10:18.150Z,4.03
2022-10-08T11:15:53.457Z,3.88
2022-10-08T11:20:55.190Z,3.75
2022-10-08T11:26:21.504Z,3.85
2022-10-08T11:31:45.195Z,3.80
2022-10-08T11:37:06.284Z,4.57
2022-10-08T11:42:19.048Z,5.07
2022-10-08T11:47:48.492Z,5.20
2022-10-08T11:52:51.646Z,5.70
2022-10-08T11:58:08.128Z,5.10
2022-10-08T12:03:21.578Z,5.75
2022-10-08T12:08:58.711Z,6.22
2022-10-08T12:14:12.826Z,5.97
2022-10-08T12:19:32.874Z,6.85
2022-10-08T12:24:37.760Z,6.10
2022-10-08T12:30:12.561Z,5.95
2022-10-08T12:35:28.284Z,7.05
2022-10-08T12:41:07.408Z,6.10
2022-10-08T12:46:36.337Z,6.00
2022-10-08T12:51:51.341Z,5.80
2022-10-08T12:56:53.615Z,5.05
2022-10-08T13:01:55.471Z,5.05
2022-10-08T13:06:57.436Z,5.35
2022-10-08T13:12:05.309Z,4.43
2022-10-08T13:17:26.362Z,3.80
2022-10-08T13:22:31.014Z,3.95
2022-10-08T13:27:37.554Z,3.47
2022-10-08T13:32:39.590Z,2.67
2022-10-08T13:37:41.571Z,2.40
2022-10-08T13:42:53.033Z,2.40
2022-10-08T13:47:55.243Z,2.20
2022-10-08T13:53:00.560Z,2.28
2022-10-08T13:58:04.353Z,2.17
2022-10-08T14:03:06.358Z,2.72
2022-10-08T14:08:17.015Z,2.47
2022-10-08T14:13:18.795Z,3.88
2022-10-08T14:18:20.517Z,2.20
2022-10-08T14:23:22.370Z,2.28
2022-10-08T14:28:24.336Z,2.17
2022-10-08T14:33:26.113Z,2.58
2022-10-08T14:38:32.608Z,2.60
2022-10-08T14:43:34.465Z,2.60
2022-10-08T14:48:36.344Z,3.38
2022-10-08T14:53:38.895Z,2.22
2022-10-08T14:58:40.694Z,1.00
2022-10-08T15:03:45.652Z,1.55
2022-10-08T15:08:47.529Z,1.50
2022-10-08T15:13:49.542Z,1.42
2022-10-08T15:18:51.578Z,1.67
2022-10-08T15:23:56.703Z,1.73
2022-10-08T15:28:58.411Z,1.55
2022-10-08T15:34:01.651Z,1.90
2022-10-08T15:39:06.211Z,1.70
2022-10-08T15:44:17.961Z,1.35
2022-10-08T15:49:19.676Z,1.02
2022-10-08T15:54:21.709Z,1.00
2022-10-08T15:59:23.416Z,0.68
2022-10-08T16:04:25.194Z,0.70
2022-10-08T16:09:27.225Z,1.13
2022-10-08T16:14:28.991Z,1.55
2022-10-08T16:19:30.718Z,1.33
2022-10-08T16:24:32.463Z,1.60
2022-10-08T16:29:34.368Z,2.75
2022-10-08T16:34:36.098Z,1.60
2022-10-08T16:39:37.846Z,2.15
2022-10-08T16:44:39.582Z,2.10
2022-10-08T16:49:41.430Z,2.25
2022-10-08T16:54:43.154Z,1.80
2022-10-08T16:59:44.873Z,2.40
2022-10-08T17:04:46.581Z,2.25
2022-10-08T17:09:48.657Z,1.50
2022-10-08T17:14:50.392Z,1.30
2022-10-08T17:19:52.142Z,1.40
2022-10-08T17:24:53.876Z,2.35
2022-10-08T17:29:55.618Z,2.25
2022-10-08T17:34:57.467Z,2.00
2022-10-08T17:39:59.170Z,1.95
2022-10-08T17:45:00.943Z,1.77
2022-10-08T17:50:02.657Z,1.95
2022-10-08T17:55:04.737Z,1.80
2022-10-08T18:00:07.000Z,2.20
2022-10-08T18:05:28.729Z,1.90
2022-10-08T18:10:30.461Z,1.60
2022-10-08T18:15:36.127Z,2.17
2022-10-08T18:20:38.064Z,2.50
2022-10-08T18:25:39.816Z,2.00
2022-10-08T18:30:41.615Z,1.90
2022-10-08T18:35:43.735Z,2.10
2022-10-08T18:40:45.503Z,3.33
2022-10-08T18:45:47.235Z,2.70
2022-10-08T18:50:49.054Z,2.97
2022-10-08T18:55:50.784Z,2.42
2022-10-08T19:00:52.829Z,2.83
2022-10-08T19:05:54.599Z,3.30
2022-10-08T19:10:56.461Z,2.53
2022-10-08T19:16:03.209Z,2.75
2022-10-08T19:21:13.170Z,2.95
2022-10-08T19:26:15.229Z,2.70
2022-10-08T19:31:17.093Z,2.92
2022-10-08T19:36:20.459Z,2.47
2022-10-08T19:41:23.520Z,3.00
2022-10-08T19:46:26.690Z,2.80
2022-10-08T19:51:30.554Z,2.60
2022-10-08T19:56:32.837Z,2.60
2022-10-08T20:01:36.472Z,2.40
2022-10-08T20:06:40.827Z,2.38
2022-10-08T20:11:46.246Z,2.70
2022-10-08T20:16:48.067Z,2.70
2022-10-08T20:21:51.204Z,2.40
2022-10-08T20:26:53.067Z,2.25
2022-10-08T20:31:55.388Z,2.33
2022-10-08T20:37:02.338Z,2.28
2022-10-08T20:42:04.210Z,2.58
2022-10-08T20:47:06.018Z,2.10
2022-10-08T20:52:07.783Z,2.08
2022-10-08T20:57:09.590Z,1.92
2022-10-08T21:02:11.693Z,2.63
2022-10-08T21:07:13.478Z,2.38
2022-10-08T21:12:15.217Z,2.60
2022-10-08T21:17:17.027Z,2.17
2022-10-08T21:22:19.296Z,2.63
2022-10-08T21:27:21.022Z,2.03
2022-10-08T21:32:22.763Z,2.65
2022-10-08T21:37:24.513Z,2.42
2022-10-08T21:42:26.224Z,2.28
2022-10-08T21:47:28.833Z,2.63
2022-10-08T21:52:30.556Z,1.83
2022-10-08T21:57:32.290Z,2.33
2022-10-08T22:02:34.064Z,2.20
2022-10-08T22:07:35.974Z,2.17
2022-10-08T22:12:37.712Z,2.55
2022-10-08T22:17:39.417Z,2.35
2022-10-08T22:22:41.135Z,2.38
2022-10-08T22:27:42.825Z,2.20
2022-10-08T22:32:44.538Z,2.03
2022-10-08T22:37:46.351Z,2.28
2022-10-08T22:42:48.309Z,2.10
2022-10-08T22:47:50.392Z,2.25
2022-10-08T22:52:52.137Z,2.10
2022-10-08T22:57:53.930Z,2.00
2022-10-08T23:02:55.705Z,2.30
2022-10-08T23:07:57.891Z,1.90
2022-10-08T23:12:59.569Z,1.50
2022-10-08T23:18:01.320Z,2.05
2022-10-08T23:23:03.030Z,1.92
2022-10-08T23:28:04.812Z,1.92
2022-10-08T23:33:06.545Z,1.92
2022-10-08T23:38:09.562Z,2.40
2022-10-08T23:43:11.318Z,2.20
2022-10-08T23:48:13.097Z,2.00
2022-10-08T23:53:14.926Z,2.42
2022-10-08T23:58:17.961Z,2.05
